createdAt,value
2024-02-29T08:06:11.257Z,2.70
2024-02-29T08:08:39.436Z,2.70
2024-02-29T08:11:07.413Z,2.90
2024-02-29T08:13:36.063Z,3.00
2024-02-29T08:16:05.176Z,3.10
2024-02-29T08:18:34.417Z,3.30
2024-02-29T08:21:05.223Z,3.40
2024-02-29T08:23:34.618Z,3.50
2024-02-29T08:26:08.231Z,3.60
2024-02-29T08:28:36.525Z,3.70
2024-02-29T08:31:05.614Z,3.80
2024-02-29T08:33:33.640Z,3.90
2024-02-29T08:36:01.800Z,4.00
2024-02-29T08:38:29.762Z,4.10
2024-02-29T08:41:01.454Z,4.30
2024-02-29T08:43:29.615Z,4.50
2024-02-29T08:45:57.594Z,4.60
2024-02-29T08:48:25.662Z,4.70
2024-02-29T08:50:53.841Z,4.80
2024-02-29T08:53:21.729Z,5.00
2024-02-29T08:55:51.345Z,5.10
2024-02-29T08:58:24.654Z,5.10
2024-02-29T09:00:52.884Z,5.40
2024-02-29T09:03:20.937Z,5.60
2024-02-29T09:05:48.934Z,5.70
2024-02-29T09:08:18.622Z,6.00
2024-02-29T09:10:47.912Z,6.20
2024-02-29T09:13:29.238Z,6.50
2024-02-29T09:16:04.738Z,6.80
2024-02-29T09:18:35.815Z,7.40
2024-02-29T09:21:03.817Z,7.70
2024-02-29T09:23:31.919Z,7.90
2024-02-29T09:26:00.373Z,8.20
2024-02-29T09:28:29.091Z,8.50
2024-02-29T09:30:56.969Z,8.60
2024-02-29T09:33:27.344Z,8.80
2024-02-29T09:35:58.605Z,9.00
2024-02-29T09:38:29.401Z,9.40
2024-02-29T09:41:06.846Z,9.60
2024-02-29T09:43:44.180Z,9.40
2024-02-29T09:46:12.458Z,8.90
2024-02-29T09:48:43.566Z,8.80
2024-02-29T09:51:16.462Z,8.70
2024-02-29T09:53:45.949Z,8.50
2024-02-29T09:56:16.032Z,8.30
2024-02-29T09:58:44.786Z,8.40
2024-02-29T10:01:13.057Z,8.60
2024-02-29T10:03:47.436Z,8.70
2024-02-29T10:06:15.676Z,8.80
2024-02-29T10:08:44.614Z,8.90
2024-02-29T10:11:17.108Z,9.20
2024-02-29T10:13:45.143Z,9.40
2024-02-29T10:16:14.667Z,9.70
2024-02-29T10:18:44.784Z,9.90
2024-02-29T10:21:14.424Z,10.30
2024-02-29T10:23:45.402Z,10.50
2024-02-29T10:26:13.451Z,10.80
2024-02-29T10:28:41.378Z,11.00
2024-02-29T10:31:09.762Z,11.10
2024-02-29T10:33:39.769Z,11.30
2024-02-29T10:36:14.363Z,11.30
2024-02-29T10:38:42.726Z,11.40
2024-02-29T10:41:12.670Z,11.60
2024-02-29T10:43:46.673Z,11.70
2024-02-29T10:46:16.627Z,11.80
2024-02-29T10:48:51.214Z,11.80
2024-02-29T10:51:32.605Z,11.80
2024-02-29T10:54:08.853Z,11.90
2024-02-29T10:56:38.044Z,12.00
2024-02-29T10:59:08.503Z,11.90
2024-02-29T11:01:38.524Z,12.10
2024-02-29T11:04:09.734Z,12.20
2024-02-29T11:06:43.742Z,12.10
2024-02-29T11:09:13.892Z,12.10
2024-02-29T11:11:43.996Z,12.20
2024-02-29T11:14:13.401Z,12.30
2024-02-29T11:16:43.303Z,12.40
2024-02-29T11:19:15.670Z,12.60
2024-02-29T11:21:45.573Z,12.80
2024-02-29T11:24:19.380Z,12.90
2024-02-29T11:26:48.319Z,12.90
2024-02-29T11:29:17.807Z,12.90
2024-02-29T11:31:48.100Z,13.00
2024-02-29T11:34:18.862Z,13.10
2024-02-29T11:36:49.148Z,13.20
2024-02-29T11:39:18.685Z,13.30
2024-02-29T11:41:46.957Z,13.20
2024-02-29T11:44:15.255Z,13.30
2024-02-29T11:46:50.195Z,13.40
2024-02-29T11:49:19.105Z,13.50
2024-02-29T11:51:49.062Z,13.70
2024-02-29T11:54:18.230Z,13.80
2024-02-29T11:56:49.214Z,13.90
2024-02-29T11:59:17.817Z,13.90
2024-02-29T12:01:46.426Z,13.80
2024-02-29T12:04:14.441Z,13.70
2024-02-29T12:06:44.886Z,13.50
2024-02-29T12:09:15.470Z,13.70
2024-02-29T12:11:47.580Z,13.80
2024-02-29T12:14:15.999Z,13.90
2024-02-29T12:16:45.496Z,14.00
2024-02-29T12:19:15.753Z,14.00
2024-02-29T12:21:45.375Z,14.10
2024-02-29T12:24:14.864Z,13.90
2024-02-29T12:26:43.850Z,13.80
2024-02-29T12:29:13.027Z,13.90
2024-02-29T12:31:42.977Z,14.00
2024-02-29T12:34:10.988Z,14.20
2024-02-29T12:36:38.973Z,14.20
2024-02-29T12:39:06.914Z,14.20
2024-02-29T12:41:36.219Z,14.30
2024-02-29T12:44:06.048Z,14.50
2024-02-29T12:46:34.104Z,14.60
2024-02-29T12:49:04.732Z,14.70
2024-02-29T12:51:32.935Z,14.60
2024-02-29T12:54:01.251Z,14.70
2024-02-29T12:56:30.733Z,14.60
2024-02-29T12:59:00.646Z,14.50
2024-02-29T13:01:30.264Z,14.40
2024-02-29T13:03:58.590Z,14.20
2024-02-29T13:06:28.346Z,14.10
2024-02-29T13:08:56.350Z,13.90
2024-02-29T13:11:24.645Z,13.80
2024-02-29T13:13:52.650Z,13.70
2024-02-29T13:16:22.199Z,13.70
2024-02-29T13:18:50.310Z,13.70
2024-02-29T13:21:18.364Z,13.70
2024-02-29T13:23:46.200Z,13.80
2024-02-29T13:26:14.426Z,13.90
2024-02-29T13:28:42.443Z,13.90
2024-02-29T13:31:10.468Z,13.90
2024-02-29T13:33:39.840Z,13.90
2024-02-29T13:36:08.156Z,13.90
2024-02-29T13:38:37.484Z,14.00
2024-02-29T13:41:06.125Z,13.90
2024-02-29T13:43:34.092Z,13.90
2024-02-29T13:46:02.272Z,13.90
2024-02-29T13:48:30.697Z,13.80
2024-02-29T13:51:00.277Z,13.90
2024-02-29T13:53:28.800Z,13.90
2024-02-29T13:55:57.098Z,14.00
2024-02-29T13:58:25.199Z,14.10
2024-02-29T14:00:53.520Z,14.10
2024-02-29T14:03:21.611Z,14.10
2024-02-29T14:05:50.712Z,14.00
2024-02-29T14:08:20.348Z,13.90
2024-02-29T14:10:48.262Z,14.00
2024-02-29T14:13:16.352Z,14.10
2024-02-29T14:15:44.561Z,13.90
2024-02-29T14:18:16.127Z,13.70
2024-02-29T14:20:44.600Z,13.70
2024-02-29T14:23:12.520Z,13.60
2024-02-29T14:25:41.810Z,13.60
2024-02-29T14:28:10.052Z,13.70
2024-02-29T14:30:38.264Z,13.70
2024-02-29T14:33:06.518Z,13.70
2024-02-29T14:35:34.830Z,13.70
2024-02-29T14:38:02.773Z,13.80
2024-02-29T14:40:31.298Z,13.70
2024-02-29T14:43:00.798Z,13.50
2024-02-29T14:45:28.724Z,13.40
2024-02-29T14:47:56.804Z,13.30
2024-02-29T14:50:25.731Z,13.30
2024-02-29T14:52:54.055Z,13.10
2024-02-29T14:55:22.086Z,13.10
2024-02-29T14:57:50.226Z,13.10
2024-02-29T15:00:20.915Z,13.00
2024-02-29T15:02:48.892Z,12.80
2024-02-29T15:05:17.429Z,12.80
2024-02-29T15:07:45.627Z,12.80
2024-02-29T15:10:13.952Z,12.80
2024-02-29T15:12:42.362Z,12.80
2024-02-29T15:17:41.388Z,12.70
2024-02-29T15:20:12.126Z,12.70
2024-02-29T15:22:42.201Z,12.70
2024-02-29T15:25:17.155Z,12.60
2024-02-29T15:27:47.530Z,12.50
2024-02-29T15:30:16.344Z,12.50
2024-02-29T15:32:46.383Z,12.50
2024-02-29T15:35:14.569Z,12.40
2024-02-29T15:37:42.708Z,12.30
2024-02-29T15:40:12.032Z,12.20
2024-02-29T15:42:40.783Z,12.10
2024-02-29T15:45:09.669Z,11.90
2024-02-29T15:50:11.748Z,11.60
2024-02-29T15:52:40.152Z,11.60
2024-02-29T15:55:09.013Z,11.60
2024-02-29T15:57:37.099Z,11.60
2024-02-29T16:00:09.737Z,11.60
2024-02-29T16:02:41.223Z,11.50
2024-02-29T16:05:12.085Z,11.40
2024-02-29T16:07:39.992Z,11.30
2024-02-29T16:10:09.757Z,11.20
2024-02-29T16:12:39.058Z,11.00
2024-02-29T16:15:08.034Z,10.90
2024-02-29T16:17:36.879Z,10.80
2024-02-29T16:20:05.463Z,10.70
2024-02-29T16:22:35.332Z,10.60
2024-02-29T16:25:03.480Z,10.50
2024-02-29T16:27:31.585Z,10.40
2024-02-29T16:29:59.481Z,10.30
2024-02-29T16:32:27.483Z,10.30
2024-02-29T16:34:55.463Z,10.10
2024-02-29T16:37:23.435Z,10.00
2024-02-29T16:39:53.570Z,9.90
2024-02-29T16:42:22.668Z,9.70
2024-02-29T17:17:13.414Z,8.50
2024-02-29T17:37:05.236Z,7.90
2024-02-29T17:39:33.156Z,7.90
2024-02-29T17:42:01.539Z,7.80
2024-02-29T17:44:29.412Z,7.70
2024-02-29T17:46:57.506Z,7.60
2024-02-29T17:49:26.945Z,7.50
2024-02-29T17:54:23.545Z,7.40
2024-02-29T17:59:21.821Z,7.30
2024-02-29T18:04:18.615Z,7.10
2024-02-29T18:06:50.690Z,7.10
2024-02-29T18:09:19.261Z,7.10
2024-02-29T18:14:16.538Z,6.90
2024-02-29T18:16:45.003Z,6.90
2024-02-29T18:19:13.442Z,6.80
2024-02-29T18:21:45.207Z,6.80
2024-02-29T18:24:14.934Z,6.60
2024-02-29T18:26:44.469Z,6.60
2024-02-29T18:29:12.509Z,6.50
2024-02-29T18:31:40.909Z,6.40
2024-02-29T18:34:09.029Z,6.40
2024-02-29T18:36:38.648Z,6.30
2024-02-29T18:39:12.281Z,6.20
2024-02-29T18:41:43.609Z,6.20
2024-02-29T18:44:11.986Z,6.20
2024-02-29T18:46:42.897Z,6.00
2024-02-29T18:49:11.733Z,6.00
2024-02-29T18:51:44.696Z,6.00
2024-02-29T18:54:12.722Z,5.90
2024-02-29T18:56:40.751Z,5.80
2024-02-29T18:59:10.884Z,5.80
2024-02-29T19:01:38.815Z,5.70
2024-02-29T19:04:06.923Z,5.70
2024-02-29T19:06:35.004Z,5.60
2024-02-29T19:09:07.294Z,5.60
2024-02-29T19:11:35.639Z,5.60
2024-02-29T19:14:03.957Z,5.50
2024-02-29T19:16:33.621Z,5.50
2024-02-29T19:19:04.707Z,5.40
2024-02-29T19:21:33.180Z,5.40
2024-02-29T19:24:01.314Z,5.40
2024-02-29T19:26:30.573Z,5.40
2024-02-29T19:28:58.634Z,5.30
2024-02-29T19:31:27.021Z,5.10
2024-02-29T19:33:56.608Z,5.10
2024-02-29T19:36:26.986Z,5.00
2024-02-29T19:38:55.434Z,5.00
2024-02-29T19:41:23.832Z,5.00
2024-02-29T19:43:51.804Z,4.90
2024-02-29T19:46:19.979Z,4.90
2024-02-29T19:48:48.073Z,4.80
2024-02-29T19:51:17.401Z,4.80
2024-02-29T19:53:45.663Z,4.70
2024-02-29T19:56:14.169Z,4.70
2024-02-29T19:58:42.169Z,4.70
2024-02-29T20:01:10.205Z,4.60
2024-02-29T20:03:38.176Z,4.50
2024-02-29T20:06:06.676Z,4.50
2024-02-29T20:08:35.903Z,4.50
2024-02-29T20:11:03.949Z,4.50
2024-02-29T20:13:32.057Z,4.50
2024-02-29T20:16:00.572Z,4.50
2024-02-29T20:18:29.247Z,4.50
2024-02-29T20:20:57.355Z,4.40
2024-02-29T20:23:25.912Z,4.40
2024-02-29T20:25:55.335Z,4.40
2024-02-29T20:28:24.234Z,4.30
2024-02-29T20:30:52.224Z,4.30
2024-02-29T20:35:48.468Z,4.30
2024-02-29T20:38:16.502Z,4.30
2024-02-29T20:40:47.448Z,4.20
2024-02-29T20:45:46.078Z,4.20
2024-02-29T20:48:16.343Z,4.20
2024-02-29T20:50:44.716Z,4.10
2024-02-29T20:53:12.622Z,4.10
2024-02-29T20:55:40.505Z,4.10
2024-02-29T20:58:09.267Z,4.10
2024-02-29T21:00:38.811Z,4.00
2024-02-29T21:03:08.904Z,4.00
2024-02-29T21:08:06.053Z,4.00
2024-02-29T21:10:34.440Z,4.00
2024-02-29T21:13:02.399Z,4.00
2024-02-29T21:15:30.644Z,3.90
2024-02-29T21:17:59.969Z,3.90
2024-02-29T21:20:28.233Z,3.90
2024-02-29T21:22:56.281Z,3.90
2024-02-29T21:25:26.173Z,3.90
2024-02-29T21:27:54.315Z,3.80
2024-02-29T21:30:22.591Z,3.80
2024-02-29T21:32:51.304Z,3.80
2024-02-29T21:35:21.712Z,3.70
2024-02-29T21:37:49.684Z,3.70
2024-02-29T21:40:17.797Z,3.70
2024-02-29T21:42:45.995Z,3.60
2024-02-29T21:45:13.966Z,3.60
2024-02-29T21:47:42.340Z,3.50
2024-02-29T21:50:11.594Z,3.50
2024-02-29T21:52:40.871Z,3.50
2024-02-29T21:55:09.548Z,3.40
2024-02-29T21:57:37.528Z,3.40
2024-02-29T22:00:06.320Z,3.30
